• Join FlightAware (Why Join?)
  • Login
  • US Flag 
05:59AM EDT


 

Airport Tracker/Info


-or-


 

Live Flight TrackerFlight Track Log ✈ N498QS ✈ 21-Nov-2012 ✈ KTEB - KMVY

Flight Track Log - Related Links

Times and Time Zones

All times are in EST time to prevent confusion due to time zone crossing. See the N498QS flight status page for this flight to view local times or setup timezone preferences in your user account.

Time Position Orientation Groundspeed Altitude Reporting Facility
EST Latitude Longitude Course Direction KTS MPH feet Rate Location/Type
10:50AM 40.8833 -74.0500 323° Northwest 185 213 1,900  Level New York TRACON
10:51AM 40.9167 -74.0833 323° Northwest 213 245 2,600 1,800 Climbing New York TRACON
10:52AM 40.9500 -74.1667 298° West 261 300 5,500 1,740 Climbing New York TRACON
10:53AM 41.0000 -74.1833 346° North 275 316 6,000 300 Climbing New York TRACON
10:54AM 41.0667 -74.1500 21° North 268 308 6,100  Climbing New York TRACON
10:55AM 41.1333 -74.1167 21° North 266 306 6,100 660 Level New York TRACON
10:56AM 41.1833 -74.0333 51° Northeast 264 304 7,500 1,680 Climbing New York TRACON
10:57AM 41.2000 -73.9333 77° East 273 314 9,500 1,800 Climbing New York TRACON
10:58AM 41.2167 -73.8500 75° East 279 321 11,100 960 Climbing New York TRACON
10:59AM 41.2333 -73.7333 79° East 329 379 11,500 1,020 Climbing New York TRACON
11:01AM 41.2519 -73.4367 85° East 346 398 14,700 1,560 Climbing Boston Center
11:02AM 41.2633 -73.3044 83° East 355 409 16,900 1,200 Climbing Boston Center
11:03AM 41.2769 -73.1472 83° East 388 447 17,100 60 Climbing Boston Center
11:04AM 41.2839 -73.0036 86° East 388 447 17,100  Level Boston Center
11:05AM 41.2908 -72.8628 86° East 383 441 17,100  Level Boston Center
11:06AM 41.2975 -72.7247 86° East 383 441 17,100  Level Boston Center
11:07AM 41.3061 -72.5839 85° East 383 441 17,100  Level Boston Center
11:08AM 41.3103 -72.5119 86° East 388 447 17,100  Level Boston Center
11:08AM 41.3106 -72.4706 89° East 390 449 17,100 -480 Level Boston Center
11:09AM 41.3186 -72.3239 86° East 392 451 16,500 -840 Descending Boston Center
11:10AM 41.3247 -72.1914 86° East 367 422 15,500 -1,020 Descending Boston Center
11:11AM 41.3347 -72.0558 84° East 365 420 14,500 -1,080 Descending Boston Center
11:12AM 41.3383 -71.9147 88° East 359 413 13,400 -1,080 Descending Boston Center
11:13AM 41.3461 -71.7819 85° East 357 411 12,400 -1,020 Descending Boston Center
11:14AM 41.3536 -71.6436 86° East 338 389 11,300 -1,200 Descending Boston Center
11:15AM 41.3569 -71.5522 87° East 297 342 10,100 -1,500 Descending Boston Center
11:16AM 41.3603 -71.4472 88° East 286 329 8,500 -1,500 Descending Boston Center
11:17AM 41.3633 -71.3394 88° East 274 315 7,100 -720 Descending Boston Center
11:18AM 41.3708 -71.2369 84° East 267 307 7,100  Level Boston Center
11:19AM 41.3739 -71.1456 87° East 267 307 7,100 -900 Level Boston Center
11:20AM 41.3622 -71.0433 99° East 267 307 5,300 -1,020 Descending Boston Center
11:21AM 41.3486 -70.9636 103° East 257 296 5,100 -720 Descending Boston Center
11:22AM 41.3350 -70.8753 102° East 231 266 3,900 -1,440 Descending Boston Center
11:23AM 41.3236 -70.8067 102° East 214 246 2,300 -960 Descending Boston Center
11:24AM 41.3267 -70.7317 87° East 192 221 2,000 -600 Descending Boston Center
11:25AM 41.3444 -70.6733 68° East 186 214 1,200 -720 Descending Boston Center
11:26AM 41.3708 -70.6228 55° Northeast 164 189 600 -600 Descending Boston Center
11:30AM 41.3934 -70.6139 242° Southwest  Level Estimated
11:37AM 41.3934 -70.6139 North  Level Estimated
11:38AM 41.3934 -70.6139 North  Level Estimated
11:39AM 41.3934 -70.6139 North  Level Estimated
11:40AM 41.3934 -70.6139 North  Level Estimated
11:41AM 41.3934 -70.6139 North  Level Estimated
11:42AM 41.3934 -70.6139 North  Level Estimated
11:43AM 41.3934 -70.6139 North  Level Estimated
11:44AM 41.3934 -70.6139 North  Level Estimated